Time,TemperatureF,DewpointF,PressureIn,WindDirection,WindDirectionDegrees,WindSpeedMPH,WindSpeedGustMPH,Humidity,HourlyPrecipIn,Conditions,Clouds,dailyrainin,SolarRadiationWatts/m^2,SoftwareType,DateUTC
2013-03-08 00:22:00,41.0,14.0,-100.00,WNW,292,9.0,15.0,33,0.00,,,0.00,617.000000,,2013-03-08 00:22:00,
2013-03-08 00:33:00,41.0,14.0,-100.00,WNW,292,9.0,15.0,33,0.00,,,0.00,617.000000,,2013-03-08 00:33:00,
2013-03-08 00:43:00,41.0,14.0,-100.00,WNW,292,9.0,15.0,33,0.00,,,0.00,617.000000,,2013-03-08 00:43:00,
2013-03-08 00:52:00,41.0,14.0,-100.00,WNW,292,9.0,15.0,33,0.00,,,0.00,617.000000,,2013-03-08 00:52:00,
2013-03-08 01:21:00,42.0,14.0,-100.00,WSW,247,6.0,11.0,31,0.00,,,0.00,413.000000,,2013-03-08 01:21:00,
2013-03-08 01:32:00,42.0,14.0,-100.00,WSW,247,6.0,11.0,31,0.00,,,0.00,413.000000,,2013-03-08 01:32:00,
2013-03-08 01:42:00,42.0,14.0,-100.00,WSW,247,6.0,11.0,31,0.00,,,0.00,413.000000,,2013-03-08 01:42:00,
2013-03-08 01:51:00,42.0,14.0,-100.00,WSW,247,6.0,11.0,31,0.00,,,0.00,413.000000,,2013-03-08 01:51:00,
2013-03-08 02:21:00,36.0,15.0,-100.00,WNW,299,3.0,8.0,41,0.00,,,0.00,100.000000,,2013-03-08 02:21:00,
2013-03-08 02:31:00,36.0,15.0,-100.00,WNW,299,3.0,8.0,41,0.00,,,0.00,100.000000,,2013-03-08 02:31:00,
2013-03-08 02:41:00,36.0,15.0,-100.00,WNW,299,3.0,8.0,41,0.00,,,0.00,100.000000,,2013-03-08 02:41:00,
2013-03-08 02:52:00,36.0,15.0,-100.00,WNW,299,3.0,8.0,41,0.00,,,0.00,100.000000,,2013-03-08 02:52:00,
2013-03-08 03:22:00,33.0,15.0,-100.00,NW,324,4.0,6.0,47,0.00,,,0.00,3.000000,,2013-03-08 03:22:00,
2013-03-08 03:32:00,33.0,15.0,-100.00,NW,324,4.0,6.0,47,0.00,,,0.00,3.000000,,2013-03-08 03:32:00,
2013-03-08 03:42:00,33.0,15.0,-100.00,NW,324,4.0,6.0,47,0.00,,,0.00,3.000000,,2013-03-08 03:42:00,
2013-03-08 03:52:00,33.0,15.0,-100.00,NW,324,4.0,6.0,47,0.00,,,0.00,3.000000,,2013-03-08 03:52:00,
2013-03-08 04:21:00,29.0,15.0,-100.00,ENE,69,2.0,8.0,55,0.00,,,0.00,1.000000,,2013-03-08 04:21:00,
2013-03-08 04:32:00,29.0,15.0,-100.00,ENE,69,2.0,8.0,55,0.00,,,0.00,1.000000,,2013-03-08 04:32:00,
2013-03-08 04:42:00,29.0,15.0,-100.00,ENE,69,2.0,8.0,55,0.00,,,0.00,1.000000,,2013-03-08 04:42:00,
2013-03-08 04:51:00,29.0,15.0,-100.00,ENE,69,2.0,8.0,55,0.00,,,0.00,1.000000,,2013-03-08 04:51:00,
2013-03-08 05:22:00,28.0,16.0,-100.00,ENE,70,3.0,5.0,60,0.00,,,0.00,1.000000,,2013-03-08 05:22:00,
2013-03-08 05:32:00,28.0,16.0,-100.00,ENE,70,3.0,5.0,60,0.00,,,0.00,1.000000,,2013-03-08 05:32:00,
2013-03-08 05:42:00,28.0,16.0,-100.00,ENE,70,3.0,5.0,60,0.00,,,0.00,1.000000,,2013-03-08 05:42:00,
2013-03-08 05:52:00,28.0,16.0,-100.00,ENE,70,3.0,5.0,60,0.00,,,0.00,1.000000,,2013-03-08 05:52:00,
2013-03-08 06:21:00,25.0,18.0,-100.00,East,84,4.0,6.0,73,0.00,,,0.00,1.000000,,2013-03-08 06:21:00,
2013-03-08 06:32:00,25.0,18.0,-100.00,East,84,4.0,6.0,73,0.00,,,0.00,1.000000,,2013-03-08 06:32:00,
2013-03-08 06:42:00,25.0,18.0,-100.00,East,84,4.0,6.0,73,0.00,,,0.00,1.000000,,2013-03-08 06:42:00,
2013-03-08 06:51:00,25.0,18.0,-100.00,East,84,4.0,6.0,73,0.00,,,0.00,1.000000,,2013-03-08 06:51:00,
2013-03-08 07:21:00,27.0,20.0,-100.00,North,4,4.0,6.0,73,0.00,,,0.00,1.000000,,2013-03-08 07:21:00,
2013-03-08 07:31:00,27.0,20.0,-100.00,North,4,4.0,6.0,73,0.00,,,0.00,1.000000,,2013-03-08 07:31:00,
2013-03-08 07:41:00,27.0,20.0,-100.00,North,4,4.0,6.0,73,0.00,,,0.00,1.000000,,2013-03-08 07:41:00,
2013-03-08 07:51:00,27.0,20.0,-100.00,North,4,4.0,6.0,73,0.00,,,0.00,1.000000,,2013-03-08 07:51:00,
2013-03-08 08:21:00,27.0,20.0,-100.00,NE,53,4.0,6.0,75,0.00,,,0.00,1.000000,,2013-03-08 08:21:00,
2013-03-08 08:31:00,27.0,20.0,-100.00,NE,53,4.0,6.0,75,0.00,,,0.00,1.000000,,2013-03-08 08:31:00,
2013-03-08 08:41:00,27.0,20.0,-100.00,NE,53,4.0,6.0,75,0.00,,,0.00,1.000000,,2013-03-08 08:41:00,
2013-03-08 08:52:00,27.0,20.0,-100.00,NE,53,4.0,6.0,75,0.00,,,0.00,1.000000,,2013-03-08 08:52:00,
2013-03-08 09:21:00,24.0,19.0,-100.00,NE,44,4.0,5.0,80,0.00,,,0.00,1.000000,,2013-03-08 09:21:00,
2013-03-08 09:32:00,24.0,19.0,-100.00,NE,44,4.0,5.0,80,0.00,,,0.00,1.000000,,2013-03-08 09:32:00,
2013-03-08 09:42:00,24.0,19.0,-100.00,NE,44,4.0,5.0,80,0.00,,,0.00,1.000000,,2013-03-08 09:42:00,
2013-03-08 09:51:00,24.0,19.0,-100.00,NE,44,4.0,5.0,80,0.00,,,0.00,1.000000,,2013-03-08 09:51:00,
2013-03-08 10:21:00,22.0,18.0,-100.00,East,86,4.0,5.0,86,0.00,,,0.00,1.000000,,2013-03-08 10:21:00,
2013-03-08 10:31:00,22.0,18.0,-100.00,East,86,4.0,5.0,86,0.00,,,0.00,1.000000,,2013-03-08 10:31:00,
2013-03-08 10:41:00,22.0,18.0,-100.00,East,86,4.0,5.0,86,0.00,,,0.00,1.000000,,2013-03-08 10:41:00,
2013-03-08 10:51:00,22.0,18.0,-100.00,East,86,4.0,5.0,86,0.00,,,0.00,1.000000,,2013-03-08 10:51:00,
2013-03-08 11:21:00,23.0,20.0,-100.00,NE,46,6.0,8.0,89,0.00,,,0.00,1.000000,,2013-03-08 11:21:00,
2013-03-08 11:32:00,23.0,20.0,-100.00,NE,46,6.0,8.0,89,0.00,,,0.00,1.000000,,2013-03-08 11:32:00,
2013-03-08 11:41:00,23.0,20.0,-100.00,NE,46,6.0,8.0,89,0.00,,,0.00,1.000000,,2013-03-08 11:41:00,
2013-03-08 11:52:00,23.0,20.0,-100.00,NE,46,6.0,8.0,89,0.00,,,0.00,1.000000,,2013-03-08 11:52:00,
2013-03-08 12:22:00,23.0,21.0,-100.00,ENE,58,6.0,11.0,92,0.00,,,0.00,1.000000,,2013-03-08 12:22:00,
2013-03-08 12:32:00,23.0,21.0,-100.00,ENE,58,6.0,11.0,92,0.00,,,0.00,1.000000,,2013-03-08 12:32:00,
2013-03-08 12:42:00,23.0,21.0,-100.00,ENE,58,6.0,11.0,92,0.00,,,0.00,1.000000,,2013-03-08 12:42:00,
2013-03-08 12:52:00,23.0,21.0,-100.00,ENE,58,6.0,11.0,92,0.00,,,0.00,1.000000,,2013-03-08 12:52:00,
2013-03-08 13:21:00,23.0,22.0,-100.00,NE,48,8.0,12.0,96,0.00,,,0.00,1.000000,,2013-03-08 13:21:00,
2013-03-08 13:32:00,23.0,22.0,-100.00,NE,48,8.0,12.0,96,0.00,,,0.00,1.000000,,2013-03-08 13:32:00,
2013-03-08 13:42:00,23.0,22.0,-100.00,NE,48,8.0,12.0,96,0.00,,,0.00,1.000000,,2013-03-08 13:42:00,
2013-03-08 13:52:00,23.0,22.0,-100.00,NE,48,8.0,12.0,96,0.00,,,0.00,1.000000,,2013-03-08 13:52:00,
2013-03-08 14:22:00,23.0,22.0,-100.00,NE,51,6.0,15.0,95,0.00,,,0.00,1.000000,,2013-03-08 14:22:00,
2013-03-08 14:32:00,23.0,22.0,-100.00,NE,51,6.0,15.0,95,0.00,,,0.00,1.000000,,2013-03-08 14:32:00,
2013-03-08 14:42:00,23.0,22.0,-100.00,NE,51,6.0,15.0,95,0.00,,,0.00,1.000000,,2013-03-08 14:42:00,
2013-03-08 14:52:00,23.0,22.0,-100.00,NE,51,6.0,15.0,95,0.00,,,0.00,1.000000,,2013-03-08 14:52:00,
2013-03-08 15:22:00,23.0,22.0,-100.00,NE,37,7.0,14.0,95,0.00,,,0.00,4.000000,,2013-03-08 15:22:00,
2013-03-08 15:32:00,23.0,22.0,-100.00,NE,37,7.0,14.0,95,0.00,,,0.00,4.000000,,2013-03-08 15:32:00,
2013-03-08 15:42:00,23.0,22.0,-100.00,NE,37,7.0,14.0,95,0.00,,,0.00,4.000000,,2013-03-08 15:42:00,
2013-03-08 15:52:00,23.0,22.0,-100.00,NE,37,7.0,14.0,95,0.00,,,0.00,4.000000,,2013-03-08 15:52:00,
2013-03-08 16:21:00,24.0,23.0,-100.00,NE,41,6.0,11.0,94,0.00,,,0.00,52.000000,,2013-03-08 16:21:00,
2013-03-08 16:31:00,24.0,23.0,-100.00,NE,41,6.0,11.0,94,0.00,,,0.00,52.000000,,2013-03-08 16:31:00,
2013-03-08 16:41:00,24.0,23.0,-100.00,NE,41,6.0,11.0,94,0.00,,,0.00,52.000000,,2013-03-08 16:41:00,
2013-03-08 16:51:00,24.0,23.0,-100.00,NE,41,6.0,11.0,94,0.00,,,0.00,52.000000,,2013-03-08 16:51:00,
2013-03-08 17:21:00,25.0,23.0,-100.00,NE,53,6.0,11.0,92,0.00,,,0.00,121.000000,,2013-03-08 17:21:00,
2013-03-08 17:32:00,25.0,23.0,-100.00,NE,53,6.0,11.0,92,0.00,,,0.00,121.000000,,2013-03-08 17:32:00,
2013-03-08 17:41:00,25.0,23.0,-100.00,NE,53,6.0,11.0,92,0.00,,,0.00,121.000000,,2013-03-08 17:41:00,
2013-03-08 17:52:00,25.0,23.0,-100.00,NE,53,6.0,11.0,92,0.00,,,0.00,121.000000,,2013-03-08 17:52:00,
2013-03-08 18:21:00,31.0,25.0,-100.00,NE,43,7.0,13.0,77,0.00,,,0.00,395.000000,,2013-03-08 18:21:00,
2013-03-08 18:31:00,31.0,25.0,-100.00,NE,43,7.0,13.0,77,0.00,,,0.00,395.000000,,2013-03-08 18:31:00,
2013-03-08 18:42:00,31.0,25.0,-100.00,NE,43,7.0,13.0,77,0.00,,,0.00,395.000000,,2013-03-08 18:42:00,
2013-03-08 18:51:00,31.0,25.0,-100.00,NE,43,7.0,13.0,77,0.00,,,0.00,395.000000,,2013-03-08 18:51:00,
2013-03-08 19:21:00,38.0,26.0,-100.00,NE,37,5.0,11.0,61,0.00,,,0.00,527.000000,,2013-03-08 19:21:00,
2013-03-08 19:32:00,38.0,26.0,-100.00,NE,37,5.0,11.0,61,0.00,,,0.00,527.000000,,2013-03-08 19:32:00,
2013-03-08 19:41:00,38.0,26.0,-100.00,NE,37,5.0,11.0,61,0.00,,,0.00,527.000000,,2013-03-08 19:41:00,
2013-03-08 19:51:00,38.0,26.0,-100.00,NE,37,5.0,11.0,61,0.00,,,0.00,527.000000,,2013-03-08 19:51:00,
2013-03-08 20:21:00,41.0,22.0,-100.00,NE,50,6.0,12.0,47,0.00,,,0.00,748.000000,,2013-03-08 20:21:00,
2013-03-08 20:31:00,41.0,22.0,-100.00,NE,50,6.0,12.0,47,0.00,,,0.00,748.000000,,2013-03-08 20:31:00,
2013-03-08 20:41:00,41.0,22.0,-100.00,NE,50,6.0,12.0,47,0.00,,,0.00,748.000000,,2013-03-08 20:41:00,
2013-03-08 20:52:00,41.0,22.0,-100.00,NE,50,6.0,12.0,47,0.00,,,0.00,748.000000,,2013-03-08 20:52:00,
2013-03-08 21:21:00,44.0,24.0,-100.00,WNW,297,8.0,14.0,45,0.00,,,0.00,746.000000,,2013-03-08 21:21:00,
2013-03-08 21:32:00,44.0,24.0,-100.00,WNW,297,8.0,14.0,45,0.00,,,0.00,746.000000,,2013-03-08 21:32:00,
2013-03-08 21:41:00,44.0,24.0,-100.00,WNW,297,8.0,14.0,45,0.00,,,0.00,746.000000,,2013-03-08 21:41:00,
2013-03-08 21:51:00,44.0,24.0,-100.00,WNW,297,8.0,14.0,45,0.00,,,0.00,746.000000,,2013-03-08 21:51:00,
2013-03-08 22:22:00,45.0,23.0,-100.00,WNW,291,8.0,13.0,41,0.00,,,0.00,775.000000,,2013-03-08 22:22:00,
2013-03-08 22:32:00,45.0,23.0,-100.00,WNW,291,8.0,13.0,41,0.00,,,0.00,775.000000,,2013-03-08 22:32:00,
2013-03-08 22:42:00,45.0,23.0,-100.00,WNW,291,8.0,13.0,41,0.00,,,0.00,775.000000,,2013-03-08 22:42:00,
2013-03-08 22:52:00,45.0,23.0,-100.00,WNW,291,8.0,13.0,41,0.00,,,0.00,775.000000,,2013-03-08 22:52:00,
2013-03-08 23:21:00,46.0,15.0,-100.00,WNW,293,9.0,16.0,28,0.00,,,0.00,670.000000,,2013-03-08 23:21:00,
2013-03-08 23:32:00,46.0,15.0,-100.00,WNW,293,9.0,16.0,28,0.00,,,0.00,670.000000,,2013-03-08 23:32:00,
2013-03-08 23:42:00,46.0,15.0,-100.00,WNW,293,9.0,16.0,28,0.00,,,0.00,670.000000,,2013-03-08 23:42:00,
2013-03-08 23:52:00,46.0,15.0,-100.00,WNW,293,9.0,16.0,28,0.00,,,0.00,670.000000,,2013-03-08 23:52:00,